ROMMA est une association bénévole à but non lucratif. Votre soutien est indispensable : ADHERER à ROMMA ou FAIRE un DON

Briord - (01, Ain)

Bugey (281 m)   Longitude: 05° 29' 13" E   Latitude: 45° 46' 37" N Station partenaire n°15
 

Détail journalier du     <<     >>

Température Precipitation Humidité Pression Vent Dir Rafale Dir. rafale Ensol.
Heure (°C) (mm) (%) (hPa) (km/h) (km/h) (min)
01:00 18.6086101802ENE0
02:00 18.20861018011N0
03:00 17.5088101803NNE0
04:00 16.6091101800---0
05:00 16.1091101800---0
06:00 15.7092101800---0
07:00 16.7094101800---0
08:00 17.6092101803OSO0
09:00 20.408510172SE11SSE55
10:00 21.508310182ONO15N60
11:00 22.908010175NO19NO60
12:00 24.707310172ONO16NNO55
13:00 26.407310163O16NNO60
14:00 27.406810163O18ONO60
15:00 28.506610155ONO19ONO60
16:00 28.906010158NO21O60
17:00 29.3059101410ONO27ONO60
18:00 29.105510149NO27NO60
19:00 28.005810147NO23NO20
20:00 26.806310155NO19NNO35
21:00 25.606810151ONO6NO0
22:00 23.5078101602ONO0
23:00 22.8081101602SE0
minuit 21.9083101602NNO0

Graphique du 02-07-2019

 

Serveur OMMA